sensor_id;sensor_type;location;lat;lon;timestamp;P1;durP1;ratioP1;P2;durP2;ratioP2
1078;SDS011;528;47.872;11.478;2022-10-16T10:00:34;2.70;;;2.50;;
1078;SDS011;528;47.872;11.478;2022-10-16T10:03:09;3.30;;;2.50;;
1078;SDS011;528;47.872;11.478;2022-10-16T10:05:40;2.30;;;2.20;;
1078;SDS011;528;47.872;11.478;2022-10-16T10:08:21;2.30;;;2.10;;
1078;SDS011;528;47.872;11.478;2022-10-16T10:11:01;2.50;;;2.30;;
1078;SDS011;528;47.872;11.478;2022-10-16T10:13:30;2.57;;;2.37;;
1078;SDS011;528;47.872;11.478;2022-10-16T10:16:00;2.47;;;2.13;;
1078;SDS011;528;47.872;11.478;2022-10-16T10:18:27;4.50;;;2.20;;
1078;SDS011;528;47.872;11.478;2022-10-16T10:20:57;2.00;;;1.80;;
1078;SDS011;528;47.872;11.478;2022-10-16T10:23:26;2.27;;;2.07;;
1078;SDS011;528;47.872;11.478;2022-10-16T10:25:56;1.90;;;1.80;;
1078;SDS011;528;47.872;11.478;2022-10-16T10:28:38;2.23;;;2.13;;
1078;SDS011;528;47.872;11.478;2022-10-16T10:31:38;2.03;;;1.93;;
1078;SDS011;528;47.872;11.478;2022-10-16T10:34:20;2.17;;;2.00;;
1078;SDS011;528;47.872;11.478;2022-10-16T10:37:10;2.10;;;2.00;;
1078;SDS011;528;47.872;11.478;2022-10-16T10:40:08;1.93;;;1.73;;
1078;SDS011;528;47.872;11.478;2022-10-16T10:42:48;2.53;;;2.33;;
1078;SDS011;528;47.872;11.478;2022-10-16T10:45:38;2.40;;;1.53;;
1078;SDS011;528;47.872;11.478;2022-10-16T11:06:55;1.87;;;1.77;;
1078;SDS011;528;47.872;11.478;2022-10-16T11:09:25;2.00;;;1.90;;
1078;SDS011;528;47.872;11.478;2022-10-16T11:12:00;2.10;;;1.90;;
1078;SDS011;528;47.872;11.478;2022-10-16T11:14:31;1.70;;;1.60;;
1078;SDS011;528;47.872;11.478;2022-10-16T11:17:06;1.80;;;1.70;;
1078;SDS011;528;47.872;11.478;2022-10-16T11:19:41;2.47;;;2.00;;
1078;SDS011;528;47.872;11.478;2022-10-16T11:22:15;1.83;;;1.73;;
1078;SDS011;528;47.872;11.478;2022-10-16T11:24:47;1.70;;;1.50;;
1078;SDS011;528;47.872;11.478;2022-10-16T11:27:19;1.53;;;1.37;;
1078;SDS011;528;47.872;11.478;2022-10-16T11:29:51;1.60;;;1.50;;
1078;SDS011;528;47.872;11.478;2022-10-16T11:32:25;1.93;;;1.40;;
1078;SDS011;528;47.872;11.478;2022-10-16T11:34:59;1.37;;;1.20;;
1078;SDS011;528;47.872;11.478;2022-10-16T11:37:32;1.80;;;1.70;;
1078;SDS011;528;47.872;11.478;2022-10-16T11:40:09;1.30;;;1.23;;
1078;SDS011;528;47.872;11.478;2022-10-16T11:42:46;1.37;;;1.30;;
1078;SDS011;528;47.872;11.478;2022-10-16T11:45:24;1.47;;;1.37;;
1078;SDS011;528;47.872;11.478;2022-10-16T11:47:58;1.20;;;1.20;;
1078;SDS011;528;47.872;11.478;2022-10-16T11:50:33;1.67;;;1.20;;
1078;SDS011;528;47.872;11.478;2022-10-16T11:53:07;1.43;;;1.33;;
1078;SDS011;528;47.872;11.478;2022-10-16T11:55:41;1.10;;;1.10;;
1078;SDS011;528;47.872;11.478;2022-10-16T11:58:12;1.53;;;1.43;;
1078;SDS011;528;47.872;11.478;2022-10-16T12:00:46;1.20;;;1.20;;
1078;SDS011;528;47.872;11.478;2022-10-16T12:03:20;1.40;;;1.40;;
1078;SDS011;528;47.872;11.478;2022-10-16T12:05:57;1.73;;;1.23;;
1078;SDS011;528;47.872;11.478;2022-10-16T12:08:33;1.30;;;1.20;;
1078;SDS011;528;47.872;11.478;2022-10-16T12:11:06;1.10;;;1.00;;
1078;SDS011;528;47.872;11.478;2022-10-16T12:13:34;1.37;;;1.20;;
1078;SDS011;528;47.872;11.478;2022-10-16T12:16:07;1.50;;;1.40;;
1078;SDS011;528;47.872;11.478;2022-10-16T12:18:48;1.20;;;1.10;;
1078;SDS011;528;47.872;11.478;2022-10-16T12:21:17;1.20;;;1.10;;
1078;SDS011;528;47.872;11.478;2022-10-16T12:23:48;2.10;;;1.33;;
1078;SDS011;528;47.872;11.478;2022-10-16T12:26:23;1.40;;;1.30;;
1078;SDS011;528;47.872;11.478;2022-10-16T12:28:51;0.80;;;0.80;;
1078;SDS011;528;47.872;11.478;2022-10-16T12:31:19;1.33;;;1.00;;
1078;SDS011;528;47.872;11.478;2022-10-16T12:33:54;1.10;;;1.10;;
1078;SDS011;528;47.872;11.478;2022-10-16T12:36:29;1.23;;;1.13;;
1078;SDS011;528;47.872;11.478;2022-10-16T12:38:58;0.93;;;0.93;;
1078;SDS011;528;47.872;11.478;2022-10-16T12:41:26;1.03;;;1.03;;
1078;SDS011;528;47.872;11.478;2022-10-16T12:46:51;2.00;;;1.30;;
1078;SDS011;528;47.872;11.478;2022-10-16T12:49:51;5.30;;;1.33;;
1078;SDS011;528;47.872;11.478;2022-10-16T14:33:55;1.87;;;1.30;;
1078;SDS011;528;47.872;11.478;2022-10-16T14:37:06;2.23;;;1.20;;
1078;SDS011;528;47.872;11.478;2022-10-16T14:40:04;1.50;;;1.40;;
1078;SDS011;528;47.872;11.478;2022-10-16T15:12:36;1.70;;;1.30;;
1078;SDS011;528;47.872;11.478;2022-10-16T15:17:54;2.80;;;1.93;;
1078;SDS011;528;47.872;11.478;2022-10-16T17:12:59;2.80;;;2.23;;
1078;SDS011;528;47.872;11.478;2022-10-16T17:16:09;3.90;;;3.00;;
1078;SDS011;528;47.872;11.478;2022-10-16T17:19:10;3.37;;;2.67;;
1078;SDS011;528;47.872;11.478;2022-10-16T17:25:21;4.10;;;2.20;;
1078;SDS011;528;47.872;11.478;2022-10-16T17:32:12;3.10;;;2.00;;
1078;SDS011;528;47.872;11.478;2022-10-16T17:35:15;3.10;;;2.47;;
1078;SDS011;528;47.872;11.478;2022-10-16T17:42:06;2.83;;;2.63;;
1078;SDS011;528;47.872;11.478;2022-10-16T17:48:40;4.83;;;3.80;;
1078;SDS011;528;47.872;11.478;2022-10-16T17:52:19;4.40;;;4.00;;
1078;SDS011;528;47.872;11.478;2022-10-16T17:55:25;3.80;;;3.50;;
1078;SDS011;528;47.872;11.478;2022-10-16T17:58:24;4.70;;;3.00;;
1078;SDS011;528;47.872;11.478;2022-10-16T18:01:12;3.90;;;2.97;;
1078;SDS011;528;47.872;11.478;2022-10-16T20:09:33;5.67;;;3.80;;
